Flight Track Log - Related Links

Times and Time Zones

All times are in EDT time to prevent confusion due to time zone crossing. See the N35246 flight status page for this flight to view local times or setup timezone preferences in your user account.

Time Position Orientation Groundspeed Altitude Reporting Facility
EDT Latitude Longitude Course Direction KTS MPH feet Rate Location/Type
Fri 05:58:57 PM 26.3192 -80.1614 287° West 124 143 1,900  Level Miami Center
Fri 05:59:58 PM 26.3294 -80.1992 287° West 125 144 1,900  Level Miami Center
Fri 06:00:54 PM 26.3400 -80.2325 289° West 128 147 1,900  Level Miami Center
Fri 06:01:55 PM 26.3544 -80.2686 294° West 120 138 1,900 49 Level Miami Center
Fri 06:02:56 PM 26.3811 -80.2753 347° North 103 119 2,000 94 Climbing Miami Center
Fri 06:04:03 PM 26.3681 -80.2486 119° Southeast 91 105 2,100 47 Climbing Miami Center
Fri 06:05:04 PM 26.3617 -80.2203 104° East 98 113 2,100  Level Miami Center
Fri 06:06:05 PM 26.3483 -80.1983 124° Southeast 96 110 2,100  Level Miami Center
Fri 06:07:01 PM 26.3306 -80.1808 139° Southeast 91 105 2,100 -205 Level Miami Center
Fri 06:08:02 PM 26.3128 -80.1653 142° Southeast 81 93 1,700 -344 Descending Miami Center
Fri 06:09:03 PM 26.2947 -80.1500 143° Southeast 81 93 1,400 -344 Descending Miami Center
Fri 06:10:04 PM 26.2747 -80.1347 146° Southeast 81 93 1,000 -393 Descending Miami Center
Fri 06:11:05 PM 26.2567 -80.1239 152° Southeast 84 97 600 -2 Descending Miami Center
Fri 06:54:09 PM 26.2586 -80.1042 29° Northeast 86 99 900 18 Climbing Miami Center
Fri 06:55:00 PM 26.9381 -81.5232 314° West  Level FlightAware Approximate
Fri 06:55:11 PM 26.2633 -80.1342 280° West 89 102 1,400  Level Miami Center
Fri 06:56:00 PM 26.9610 -81.5497 314° West  Level FlightAware Approximate
Fri 06:56:11 PM 26.2689 -80.1619 283° West 95 109 1,700  Level Miami Center
Fri 06:57:00 PM 26.9839 -81.5761 314° West  Level FlightAware Approximate
Fri 06:57:14 PM 26.2767 -80.1911 287° West 92 106 2,000  Level Miami Center
Fri 06:58:00 PM 27.0068 -81.6026 314° West  Level FlightAware Approximate
Fri 06:58:13 PM 26.2842 -80.2214 285° West 97 112 2,300  Level Miami Center
Fri 06:59:17 PM 26.2875 -80.2522 277° West 94 108 2,800 393 Climbing Miami Center
Fri 07:00:15 PM 26.2886 -80.2797 273° West 90 104 3,100 353 Climbing Miami Center
Fri 07:01:16 PM 26.2933 -80.3081 281° West 94 108 3,500 347 Climbing Miami Center
Fri 07:02:16 PM 26.2956 -80.3383 275° West 92 106 3,800 328 Climbing Miami Center
Fri 07:03:24 PM 26.2986 -80.3678 277° West 93 107 4,200 372 Climbing Miami Center
Fri 07:04:25 PM 26.2989 -80.4000 271° West 94 108 4,600 341 Climbing Miami Center
Fri 07:05:27 PM 26.3008 -80.4303 274° West 95 109 4,900 341 Climbing Miami Center
Fri 07:06:28 PM 26.3022 -80.4608 273° West 98 113 5,300 293 Climbing Miami Center
Fri 07:07:30 PM 26.3056 -80.4933 277° West 98 113 5,500 244 Climbing Miami Center
Fri 07:08:31 PM 26.3072 -80.5219 274° West 96 110 5,800 293 Climbing Miami Center
Fri 07:09:33 PM 26.3142 -80.5511 285° West 97 112 6,100 145 Climbing Miami Center
Fri 07:10:35 PM 26.3247 -80.5856 289° West 111 128 6,100 -49 Level Miami Center
Fri 07:11:36 PM 26.3353 -80.6228 288° West 121 139 6,000 -49 Descending Miami Center
Fri 07:12:38 PM 26.3469 -80.6597 289° West 124 143 6,000  Level Miami Center
Fri 07:13:39 PM 26.3678 -80.6919 306° West 119 137 6,000  Level Miami Center
Fri 07:14:41 PM 26.3872 -80.7225 305° West 119 137 6,000  Level Miami Center
Fri 07:15:43 PM 26.4050 -80.7522 304° West 119 137 6,000  Level Miami Center
Fri 07:16:44 PM 26.4294 -80.7822 312° West 119 137 6,000  Level Miami Center
Fri 07:17:46 PM 26.4519 -80.8111 311° West 120 138 6,000  Level Miami Center
Fri 07:18:47 PM 26.4722 -80.8403 308° West 120 138 6,000  Level Miami Center
Fri 07:19:49 PM 26.4881 -80.8753 297° West 119 137 6,000  Level Miami Center
Fri 07:20:51 PM 26.5100 -80.9033 311° West 119 137 6,000 49 Level Miami Center
Fri 07:21:52 PM 26.5306 -80.9319 309° West 119 137 6,100  Climbing Miami Center
Fri 07:22:54 PM 26.5550 -80.9628 312° West 121 139 6,000  Descending Miami Center
Fri 07:23:56 PM 26.5722 -80.9919 303° West 119 137 6,100 49 Climbing Miami Center
Fri 07:24:57 PM 26.5922 -81.0236 305° West 119 137 6,100 -49 Level Miami Center
Fri 07:25:59 PM 26.6147 -81.0539 310° West 119 137 6,000 -97 Descending Miami Center
Fri 07:27:01 PM 26.6311 -81.0875 299° West 125 144 5,900 -49 Descending Miami Center
Fri 07:28:02 PM 26.6547 -81.1178 311° West 121 139 5,900 49 Level Miami Center
Fri 07:29:04 PM 26.6750 -81.1469 308° West 121 139 6,000  Climbing Miami Center
Fri 07:30:05 PM 26.6947 -81.1800 304° West 121 139 5,900  Descending Miami Center
Fri 07:31:07 PM 26.7117 -81.2097 303° West 114 131 6,000 48 Climbing Miami Center
Fri 07:32:09 PM 26.7308 -81.2389 306° West 115 132 6,000 -49 Level Miami Center
Fri 07:33:10 PM 26.7508 -81.2722 304° West 117 135 5,900  Descending Miami Center
Fri 07:34:12 PM 26.7711 -81.3003 309° West 118 136 6,000 49 Climbing Miami Center
Fri 07:35:13 PM 26.7939 -81.3311 310° West 119 137 6,000  Level Miami Center
Fri 07:36:15 PM 26.8117 -81.3619 303° West 119 137 6,000  Level Miami Center
Fri 07:37:17 PM 26.8328 -81.3931 307° West 116 133 6,000  Level Miami Center
Fri 07:38:18 PM 26.8383 -81.4278 280° West 117 135 6,000  Level Miami Center
Fri 07:39:20 PM 26.8417 -81.4653 276° West 116 133 6,000 -49 Level Miami Center
Fri 07:40:21 PM 26.8464 -81.5000 279° West 116 133 5,900 -49 Descending Miami Center
Fri 07:41:23 PM 26.8508 -81.5353 278° West 116 133 5,900 48 Level Miami Center
Fri 07:42:25 PM 26.8556 -81.5736 278° West 116 133 6,000 49 Climbing Miami Center
Fri 07:43:26 PM 26.8617 -81.6089 281° West 116 133 6,000  Level Miami Center
Fri 07:44:28 PM 26.8675 -81.6472 280° West 116 133 6,000  Level Miami Center
Fri 07:45:29 PM 26.8708 -81.6819 276° West 116 133 6,000 -49 Level Miami Center
Fri 07:46:31 PM 26.8781 -81.7197 282° West 116 133 5,900  Descending Miami Center
Fri 07:47:32 PM 26.8828 -81.7539 279° West 115 132 6,000  Climbing Miami Center
Fri 07:48:34 PM 26.8886 -81.7925 280° West 118 136 5,900  Descending Miami Center
Fri 07:49:36 PM 26.8933 -81.8272 279° West 117 135 6,000 49 Climbing Miami Center
Fri 07:50:37 PM 26.8997 -81.8639 281° West 113 130 6,000  Level Miami Center
Fri 07:51:39 PM 26.9044 -81.8981 279° West 113 130 6,000  Level Miami Center
Fri 07:52:40 PM 26.9092 -81.9311 279° West 109 125 6,000  Level Miami Center
Fri 07:53:42 PM 26.9133 -81.9675 277° West 110 127 6,000  Level Miami Center
Fri 07:54:43 PM 26.9175 -82.0006 278° West 109 125 6,000  Level Miami Center
Fri 07:55:45 PM 26.9411 -82.0269 315° West 114 131 6,000 -48 Level Miami Center
Fri 07:56:47 PM 26.9672 -82.0486 324° Northwest 116 133 5,900 -49 Descending Miami Center
Fri 07:57:48 PM 26.9919 -82.0756 316° Northwest 116 133 5,900 49 Level Miami Center
Fri 07:58:50 PM 27.0122 -82.0981 315° West 118 136 6,000  Climbing Miami Center
Fri 07:59:51 PM 27.0342 -82.1228 315° West 114 131 5,900 -49 Descending Miami Center
Fri 08:00:53 PM 27.0625 -82.1536 316° Northwest 115 132 5,900 -195 Level Miami Center
Fri 08:01:54 PM 27.0914 -82.1792 322° Northwest 128 147 5,500 -439 Descending Miami Center
Fri 08:02:56 PM 27.1175 -82.2089 315° West 131 151 5,000 -537 Descending Miami Center
Fri 08:03:57 PM 27.1447 -82.2406 314° West 137 158 4,400 -537 Descending Miami Center
Fri 08:04:59 PM 27.1731 -82.2717 316° Northwest 138 159 3,900 -439 Descending Miami Center
Fri 08:06:00 PM 27.1986 -82.3047 311° West 138 159 3,500 -439 Descending Miami Center
Fri 08:07:02 PM 27.2208 -82.3381 307° West 138 159 3,000 -293 Descending Miami Center
Fri 08:08:03 PM 27.2447 -82.3672 313° West 136 157 2,900 -238 Descending Miami Center
Fri 08:08:43 PM 27.2667 -82.4000 307° West 116 133 2,600 -600 Descending Tampa TRACON
Fri 08:09:43 PM 27.2833 -82.4167 318° Northwest 106 122 1,900 -400 Descending Tampa TRACON
Fri 08:10:43 PM 27.3000 -82.4500 299° West 104 120 1,800 -50 Descending Tampa TRACON
Fri 08:11:43 PM 27.3167 -82.4667 318° Northwest 106 122 1,800 -150 Level Tampa TRACON
Fri 08:12:43 PM 27.3333 -82.4833 318° Northwest 104 120 1,500 -450 Descending Tampa TRACON
Fri 08:13:43 PM 27.3500 -82.5167 299° West 98 113 900 -500 Descending Tampa TRACON
Fri 08:14:43 PM 27.3667 -82.5333 318° Northwest 90 104 500 -318 Descending Tampa TRACON
Fri 08:16:14 PM 27.3953 -82.5547 326° Northwest 97 112 100 -264 Descending Miami Center
Fri 08:18:00 PM 27.3954 -82.5544 161° South  Level Estimated

Login

Don't have an account? Register now (free) for customized features, flight alerts, and more!